AAL108 KBOS-EGLL
Flight info
| Callsign | AAL108 |
|---|---|
| Flight time | N/A |
| Altitude | 39000 |
| Route | CELTK7 CELTK DCT FRILL DCT VITOL/M081F390 N21A CARAC DCT DOPHN/N0476F390 DCT PORTI/M081F390 NATT GISTI/N0457F390 DCT LONDU DCT ELPOM DCT ENJEX DCT AVZAC DCT INFEC DCT JETZI DCT AMFUL DCT ORZEB/N0345F230 P2 SIRIC |
| Aircraft | B772/H-SDE2E3FGHIJ5LORVWXY/LB1D1 |
Departure
| Time | 2026-05-05 00:04 |
|---|---|
| Airport | Boston Logan International Airport (KBOS) |
Arrival
| Time | N/A |
|---|---|
| Airport | London Heathrow Airport (EGLL) |
| Time | Latitude | Longitude | Altitude | Speed | Heading |
|---|---|---|---|---|---|
| 2026-05-04 23:30 | 42.36042 | -71.01688 | 30 ft | 0 kts | 289° |
| 2026-05-04 23:49 | 42.36038 | -71.01674 | 29 ft | 4 kts | 290° |
| 2026-05-04 23:50 | 42.36028 | -71.01640 | 29 ft | 4 kts | 295° |
| 2026-05-04 23:50 | 42.36015 | -71.01609 | 28 ft | 4 kts | 316° |
| 2026-05-04 23:50 | 42.35996 | -71.01596 | 28 ft | 3 kts | 19° |
| 2026-05-04 23:50 | 42.35972 | -71.01608 | 29 ft | 4 kts | 19° |
| 2026-05-04 23:51 | 42.35963 | -71.01612 | 28 ft | 0 kts | 19° |
| 2026-05-04 23:56 | 42.35972 | -71.01608 | 30 ft | 2 kts | 19° |
| 2026-05-04 23:56 | 42.35985 | -71.01602 | 30 ft | 4 kts | 19° |
| 2026-05-04 23:56 | 42.36015 | -71.01587 | 30 ft | 5 kts | 19° |
| 2026-05-04 23:57 | 42.36055 | -71.01568 | 30 ft | 7 kts | 19° |
| 2026-05-04 23:57 | 42.36107 | -71.01543 | 30 ft | 9 kts | 19° |
| 2026-05-04 23:57 | 42.36169 | -71.01513 | 30 ft | 10 kts | 20° |
| 2026-05-04 23:57 | 42.36241 | -71.01477 | 30 ft | 12 kts | 20° |
| 2026-05-04 23:58 | 42.36320 | -71.01438 | 30 ft | 10 kts | 20° |
| 2026-05-04 23:58 | 42.36355 | -71.01365 | 30 ft | 11 kts | 83° |
| 2026-05-04 23:58 | 42.36407 | -71.01300 | 30 ft | 11 kts | 21° |
| 2026-05-04 23:58 | 42.36485 | -71.01262 | 30 ft | 13 kts | 19° |
| 2026-05-04 23:59 | 42.36573 | -71.01219 | 30 ft | 14 kts | 19° |
| 2026-05-04 23:59 | 42.36670 | -71.01172 | 30 ft | 15 kts | 19° |
| 2026-05-04 23:59 | 42.36777 | -71.01150 | 30 ft | 16 kts | 347° |
| 2026-05-04 23:59 | 42.36865 | -71.01231 | 30 ft | 10 kts | 347° |
| 2026-05-05 00:00 | 42.36925 | -71.01180 | 30 ft | 11 kts | 42° |
| 2026-05-05 00:00 | 42.36965 | -71.01132 | 29 ft | 12 kts | 39° |
| 2026-05-05 00:00 | 42.37070 | -71.01056 | 30 ft | 13 kts | 25° |
| 2026-05-05 00:00 | 42.37156 | -71.01001 | 30 ft | 14 kts | 25° |
| 2026-05-05 00:01 | 42.37252 | -71.00939 | 30 ft | 16 kts | 25° |
| 2026-05-05 00:01 | 42.37357 | -71.00881 | 30 ft | 17 kts | 20° |
| 2026-05-05 00:01 | 42.37475 | -71.00823 | 30 ft | 18 kts | 20° |
| 2026-05-05 00:01 | 42.37602 | -71.00762 | 30 ft | 20 kts | 20° |
| 2026-05-05 00:02 | 42.37733 | -71.00699 | 30 ft | 20 kts | 19° |
| 2026-05-05 00:02 | 42.37825 | -71.00647 | 30 ft | 12 kts | 41° |
| 2026-05-05 00:02 | 42.37826 | -71.00543 | 30 ft | 7 kts | 109° |
| 2026-05-05 00:02 | 42.37800 | -71.00491 | 30 ft | 7 kts | 155° |
| 2026-05-05 00:03 | 42.37749 | -71.00493 | 30 ft | 8 kts | 197° |
| 2026-05-05 00:03 | 42.37674 | -71.00530 | 30 ft | 27 kts | 199° |
| 2026-05-05 00:03 | 42.37271 | -71.00723 | 31 ft | 98 kts | 199° |
| 2026-05-05 00:03 | 42.36415 | -71.01137 | 100 ft | 151 kts | 198° |
| 2026-05-05 00:04 | 42.35448 | -71.01598 | 946 ft | 144 kts | 199° |
| 2026-05-05 00:04 | 42.34468 | -71.01628 | 1804 ft | 147 kts | 171° |
| 2026-05-05 00:04 | 42.33473 | -71.00940 | 2054 ft | 180 kts | 148° |
| 2026-05-05 00:04 | 42.32626 | -70.99523 | 2263 ft | 208 kts | 135° |
| 2026-05-05 00:05 | 42.31731 | -70.97882 | 2678 ft | 223 kts | 128° |
| 2026-05-05 00:05 | 42.31254 | -70.95830 | 3060 ft | 246 kts | 98° |
| 2026-05-05 00:05 | 42.31382 | -70.93406 | 3283 ft | 273 kts | 82° |
| 2026-05-05 00:05 | 42.31772 | -70.90824 | 3795 ft | 285 kts | 79° |
| 2026-05-05 00:06 | 42.32188 | -70.88167 | 4445 ft | 292 kts | 79° |
| 2026-05-05 00:06 | 42.32598 | -70.85413 | 5112 ft | 297 kts | 78° |
| 2026-05-05 00:06 | 42.32989 | -70.82698 | 5875 ft | 298 kts | 78° |
| 2026-05-05 00:06 | 42.33328 | -70.79943 | 6561 ft | 297 kts | 86° |
| 2026-05-05 00:07 | 42.33153 | -70.77142 | 7053 ft | 303 kts | 101° |
| 2026-05-05 00:07 | 42.32729 | -70.74348 | 7739 ft | 305 kts | 102° |
| 2026-05-05 00:07 | 42.32302 | -70.71535 | 8453 ft | 306 kts | 101° |
| 2026-05-05 00:07 | 42.31909 | -70.68703 | 9150 ft | 308 kts | 99° |
| 2026-05-05 00:08 | 42.31533 | -70.65844 | 9840 ft | 310 kts | 99° |
| 2026-05-05 00:08 | 42.31167 | -70.62951 | 10353 ft | 318 kts | 98° |
| 2026-05-05 00:08 | 42.30870 | -70.59882 | 10622 ft | 338 kts | 96° |
| 2026-05-05 00:08 | 42.30607 | -70.56674 | 11200 ft | 348 kts | 96° |
| 2026-05-05 00:09 | 42.30344 | -70.53395 | 11977 ft | 354 kts | 97° |
| 2026-05-05 00:09 | 42.30073 | -70.50074 | 12908 ft | 358 kts | 98° |
| 2026-05-05 00:09 | 42.29791 | -70.46701 | 13805 ft | 364 kts | 98° |
| 2026-05-05 00:09 | 42.29500 | -70.43281 | 14641 ft | 369 kts | 98° |
| 2026-05-05 00:10 | 42.29201 | -70.39820 | 15470 ft | 374 kts | 97° |
| 2026-05-05 00:10 | 42.28896 | -70.36303 | 16283 ft | 380 kts | 97° |
| 2026-05-05 00:10 | 42.28585 | -70.32733 | 17092 ft | 386 kts | 97° |
| 2026-05-05 00:10 | 42.28267 | -70.29106 | 17901 ft | 391 kts | 96° |
| 2026-05-05 00:11 | 42.27944 | -70.25428 | 18628 ft | 397 kts | 96° |
| 2026-05-05 00:11 | 42.27615 | -70.21712 | 19365 ft | 400 kts | 96° |
| 2026-05-05 00:11 | 42.27284 | -70.17967 | 20157 ft | 403 kts | 96° |
| 2026-05-05 00:11 | 42.26950 | -70.14210 | 20935 ft | 405 kts | 95° |
| 2026-05-05 00:12 | 42.26611 | -70.10414 | 21670 ft | 409 kts | 95° |
| 2026-05-05 00:12 | 42.26205 | -70.06588 | 22406 ft | 414 kts | 98° |
| 2026-05-05 00:12 | 42.25699 | -70.02737 | 23105 ft | 420 kts | 99° |
| 2026-05-05 00:12 | 42.25160 | -69.98828 | 23700 ft | 426 kts | 98° |
| 2026-05-05 00:13 | 42.24621 | -69.94873 | 24300 ft | 430 kts | 98° |
| 2026-05-05 00:13 | 42.24092 | -69.90893 | 24936 ft | 433 kts | 97° |
| 2026-05-05 00:13 | 42.23567 | -69.86867 | 25537 ft | 437 kts | 97° |
| 2026-05-05 00:13 | 42.23039 | -69.82806 | 26153 ft | 441 kts | 97° |
| 2026-05-05 00:14 | 42.22483 | -69.78718 | 26738 ft | 445 kts | 98° |
| 2026-05-05 00:14 | 42.21889 | -69.74597 | 27304 ft | 450 kts | 98° |
| 2026-05-05 00:14 | 42.21275 | -69.70438 | 27847 ft | 455 kts | 98° |
| 2026-05-05 00:14 | 42.20650 | -69.66237 | 28406 ft | 459 kts | 98° |
| 2026-05-05 00:15 | 42.20020 | -69.62000 | 28934 ft | 463 kts | 98° |
| 2026-05-05 00:15 | 42.19385 | -69.57726 | 29456 ft | 467 kts | 97° |
| 2026-05-05 00:15 | 42.18746 | -69.53413 | 29957 ft | 471 kts | 97° |
| 2026-05-05 00:15 | 42.18103 | -69.49073 | 30430 ft | 473 kts | 97° |
| 2026-05-05 00:16 | 42.17455 | -69.44713 | 30911 ft | 475 kts | 97° |
| 2026-05-05 00:16 | 42.16806 | -69.40345 | 31353 ft | 477 kts | 97° |
| 2026-05-05 00:16 | 42.16150 | -69.35945 | 31738 ft | 480 kts | 97° |
| 2026-05-05 00:16 | 42.15489 | -69.31513 | 32108 ft | 484 kts | 97° |
| 2026-05-05 00:17 | 42.14823 | -69.27070 | 32496 ft | 486 kts | 97° |
| 2026-05-05 00:17 | 42.14149 | -69.22588 | 32908 ft | 488 kts | 97° |
| 2026-05-05 00:17 | 42.13474 | -69.18106 | 33300 ft | 490 kts | 97° |
| 2026-05-05 00:17 | 42.12791 | -69.13594 | 33640 ft | 493 kts | 98° |
| 2026-05-05 00:18 | 42.12103 | -69.09055 | 33974 ft | 496 kts | 98° |
| 2026-05-05 00:18 | 42.11408 | -69.04486 | 34237 ft | 499 kts | 98° |
| 2026-05-05 00:18 | 42.10709 | -68.99898 | 34481 ft | 502 kts | 98° |
| 2026-05-05 00:18 | 42.10003 | -68.95281 | 34717 ft | 505 kts | 99° |
| 2026-05-05 00:19 | 42.09290 | -68.90633 | 34948 ft | 508 kts | 99° |
| 2026-05-05 00:19 | 42.08573 | -68.85971 | 35185 ft | 511 kts | 99° |
| 2026-05-05 00:19 | 42.07847 | -68.81265 | 35357 ft | 515 kts | 100° |
| 2026-05-05 00:19 | 42.07115 | -68.76536 | 35590 ft | 517 kts | 101° |
| 2026-05-05 00:20 | 42.06382 | -68.71812 | 35906 ft | 516 kts | 101° |
| 2026-05-05 00:20 | 42.05644 | -68.67075 | 36226 ft | 516 kts | 101° |
| 2026-05-05 00:20 | 42.04906 | -68.62344 | 36511 ft | 517 kts | 101° |
| 2026-05-05 00:20 | 42.04165 | -68.57610 | 36777 ft | 518 kts | 102° |
| 2026-05-05 00:21 | 42.03422 | -68.52870 | 37048 ft | 519 kts | 102° |
| 2026-05-05 00:21 | 42.02674 | -68.48111 | 37304 ft | 520 kts | 103° |
| 2026-05-05 00:21 | 42.01934 | -68.43424 | 37556 ft | 520 kts | 103° |
| 2026-05-05 00:21 | 42.01180 | -68.38659 | 37825 ft | 521 kts | 103° |
| 2026-05-05 00:22 | 42.00424 | -68.33898 | 38097 ft | 521 kts | 104° |
| 2026-05-05 00:22 | 41.99665 | -68.29128 | 38376 ft | 522 kts | 104° |
| 2026-05-05 00:22 | 41.98905 | -68.24363 | 38623 ft | 522 kts | 104° |
| 2026-05-05 00:22 | 41.98141 | -68.19588 | 38838 ft | 522 kts | 104° |
| 2026-05-05 00:23 | 41.97373 | -68.14801 | 38906 ft | 526 kts | 104° |
| 2026-05-05 00:23 | 41.95820 | -68.05171 | 38992 ft | 527 kts | 104° |
| 2026-05-05 00:24 | 41.94268 | -67.95582 | 38991 ft | 523 kts | 104° |
| 2026-05-05 00:24 | 41.92715 | -67.86053 | 38999 ft | 522 kts | 104° |
| 2026-05-05 00:25 | 41.91157 | -67.76551 | 39009 ft | 521 kts | 104° |